Terminal Aerodrome Forecast
Issued by NWS

Home | Current Version | Previous Version | Text Only | Print | Product List | Glossary On
Versions: 1 2 3 4 5 6 7 8 9 10 11 12 13
000
FTUS42 KMLB 201727
TAFISM
TAF
KISM 201727Z 2018/2118 03009G16KT P6SM SCT030 BKN040
     FM210200 04010KT P6SM SCT025 BKN040
      TEMPO 2109/2112 BKN025
     FM211400 09014G20KT P6SM VCSH SCT015 BKN035=

USA.gov is the U.S. government's official web portal to all federal, state and local government web resources and services.